createdAt,value
2022-09-17T00:04:04.600Z,74026.59
2022-09-17T00:14:09.526Z,74012.44
2022-09-17T00:24:17.326Z,74006.38
2022-09-17T00:34:21.578Z,74022.56
2022-09-17T00:44:48.347Z,74026.59
2022-09-17T00:54:56.872Z,74032.66
2022-09-17T01:04:59.042Z,74034.69
2022-09-17T01:15:16.333Z,74050.88
2022-09-17T01:25:46.643Z,74044.81
2022-09-17T01:36:03.817Z,74038.75
2022-09-17T01:46:15.622Z,74058.97
2022-09-17T01:56:24.983Z,74075.16
2022-09-17T02:06:31.777Z,74091.34
2022-09-17T02:16:41.036Z,74097.41
2022-09-17T02:27:03.554Z,74113.59
2022-09-17T02:37:09.380Z,74119.66
2022-09-17T02:47:35.111Z,74117.63
2022-09-17T02:57:40.881Z,74131.78
2022-09-17T03:07:45.332Z,74131.78
2022-09-17T03:17:53.230Z,74147.97
2022-09-17T03:27:55.504Z,74156.06
2022-09-17T03:37:57.586Z,74168.22
2022-09-17T03:47:59.650Z,74176.31
2022-09-17T03:58:01.591Z,74180.34
2022-09-17T04:08:10.442Z,74180.34
2022-09-17T04:18:12.909Z,74184.38
2022-09-17T04:28:17.192Z,74160.13
2022-09-17T04:38:20.775Z,74077.16
2022-09-17T04:48:28.855Z,73967.94
2022-09-17T04:58:31.510Z,73856.69
2022-09-17T05:08:35.950Z,73787.91
2022-09-17T05:18:46.669Z,73702.94
2022-09-17T05:28:48.598Z,73613.94
2022-09-17T05:38:52.787Z,73528.97
2022-09-17T05:48:57.917Z,73437.97
2022-09-17T05:59:04.874Z,73379.31
2022-09-17T06:09:09.500Z,73239.75
2022-09-17T06:19:11.843Z,73162.91
2022-09-17T06:29:15.414Z,73217.50
2022-09-17T06:39:19.793Z,73140.66
2022-09-17T06:49:24.399Z,73090.09
2022-09-17T06:59:27.532Z,73160.88
2022-09-17T07:09:29.458Z,73249.88
2022-09-17T07:19:32.840Z,73440.00
2022-09-17T07:29:37.263Z,73563.38
2022-09-17T07:39:44.295Z,73672.59
2022-09-17T07:49:46.351Z,73717.09
2022-09-17T07:59:54.534Z,73735.31
2022-09-17T08:09:58.851Z,73763.63
2022-09-17T08:20:03.406Z,73800.03
2022-09-17T08:30:10.354Z,73812.16
2022-09-17T08:40:18.557Z,73796.00
2022-09-17T08:50:32.975Z,73779.81
2022-09-17T09:00:53.577Z,73698.91
2022-09-17T09:11:01.178Z,73652.38
2022-09-17T09:21:28.794Z,73662.47
2022-09-17T09:32:16.371Z,73698.91
2022-09-17T09:42:31.595Z,73658.44
2022-09-17T09:52:53.192Z,73642.25
2022-09-17T10:03:20.288Z,73670.56
2022-09-17T10:13:37.491Z,73694.84
2022-09-17T10:23:43.931Z,73706.97
2022-09-17T10:33:56.434Z,73747.44
2022-09-17T10:44:21.051Z,73739.34
2022-09-17T10:54:46.554Z,73725.19
2022-09-17T11:05:16.755Z,73723.16
2022-09-17T11:15:53.157Z,73737.31
2022-09-17T11:26:01.349Z,73654.41
2022-09-17T11:36:10.746Z,73654.41
2022-09-17T11:46:25.463Z,73591.69
2022-09-17T11:56:35.503Z,73587.66
2022-09-17T12:06:42.510Z,73571.47
2022-09-17T12:16:49.956Z,73589.66
2022-09-17T12:27:07.016Z,73589.66
2022-09-17T12:37:41.418Z,73603.81
2022-09-17T12:48:02.184Z,73603.81
2022-09-17T12:58:26.724Z,73581.56
2022-09-17T13:08:54.136Z,73593.72
2022-09-17T13:19:16.789Z,73609.91
2022-09-17T13:29:44.788Z,73626.06
2022-09-17T13:39:48.491Z,73632.16
2022-09-17T13:49:57.927Z,73622.03
2022-09-17T14:00:01.170Z,73626.06
2022-09-17T14:10:33.947Z,73609.91
2022-09-17T14:20:38.270Z,73615.97
2022-09-17T14:30:44.235Z,73585.63
2022-09-17T14:40:59.956Z,73565.41
2022-09-17T14:51:17.667Z,73577.53
2022-09-17T15:01:30.293Z,73577.53
2022-09-17T15:11:36.838Z,73589.66
2022-09-17T15:21:45.276Z,73587.66
2022-09-17T15:31:47.521Z,73605.84
2022-09-17T15:42:00.944Z,73628.09
2022-09-17T15:52:33.054Z,73652.38
2022-09-17T16:02:38.322Z,73652.38
2022-09-17T16:12:42.784Z,73666.53
2022-09-17T16:22:48.239Z,73698.91
2022-09-17T16:32:53.945Z,73729.22
2022-09-17T16:43:02.693Z,73737.31
2022-09-17T16:53:09.229Z,73751.50
2022-09-17T17:03:15.837Z,73771.72
2022-09-17T17:13:21.117Z,73787.91
2022-09-17T17:23:23.172Z,73810.16
2022-09-17T17:33:25.418Z,73828.34
2022-09-17T17:43:28.061Z,73838.47
2022-09-17T17:53:30.212Z,73848.59
2022-09-17T18:03:39.802Z,73872.84
2022-09-17T18:13:46.584Z,73874.88
2022-09-17T18:23:49.377Z,73893.09
2022-09-17T18:34:03.052Z,73897.13
2022-09-17T18:44:05.491Z,73909.28
2022-09-17T18:54:13.028Z,73913.31
2022-09-17T19:04:17.889Z,73913.31
2022-09-17T19:14:23.003Z,73905.22
2022-09-17T19:24:25.380Z,73820.25
2022-09-17T19:34:30.130Z,73846.56
2022-09-17T19:44:35.063Z,73864.75
2022-09-17T19:54:37.281Z,73866.78
2022-09-17T20:04:39.421Z,73893.09
2022-09-17T20:14:44.058Z,73899.16
2022-09-17T20:24:51.152Z,73921.41
2022-09-17T20:34:53.658Z,73927.47
2022-09-17T20:44:55.770Z,73937.59
2022-09-17T20:54:57.940Z,73945.69
2022-09-17T21:05:05.354Z,73949.72
2022-09-17T21:15:07.852Z,73961.88
2022-09-17T21:25:10.004Z,73969.97
2022-09-17T21:35:11.947Z,73978.03
2022-09-17T21:45:22.456Z,73990.19
2022-09-17T21:55:24.552Z,73990.19
2022-09-17T22:05:27.005Z,74006.38
2022-09-17T22:15:29.369Z,74010.41
2022-09-17T22:25:31.436Z,74012.44
2022-09-17T22:35:35.787Z,74016.47
2022-09-17T22:45:44.683Z,74024.56
2022-09-17T22:55:56.396Z,74028.63
2022-09-17T23:06:05.466Z,74030.66
2022-09-17T23:16:09.130Z,74034.69
2022-09-17T23:26:14.881Z,74028.63
2022-09-17T23:36:21.945Z,74020.53
2022-09-17T23:46:28.666Z,74028.63
2022-09-17T23:56:34.684Z,74022.56
